sensor_id;sensor_type;location;lat;lon;timestamp;temperature;humidity
9033;DHT22;4551;53.164;8.210;2022-11-30T00:01:13;6.30;99.90
9033;DHT22;4551;53.164;8.210;2022-11-30T00:03:42;6.30;99.90
9033;DHT22;4551;53.164;8.210;2022-11-30T00:06:12;6.20;99.90
9033;DHT22;4551;53.164;8.210;2022-11-30T00:08:40;6.30;99.90
9033;DHT22;4551;53.164;8.210;2022-11-30T00:11:11;6.20;99.90
9033;DHT22;4551;53.164;8.210;2022-11-30T00:13:39;6.20;99.90
9033;DHT22;4551;53.164;8.210;2022-11-30T00:16:08;6.20;99.90
9033;DHT22;4551;53.164;8.210;2022-11-30T00:18:36;6.20;99.90
9033;DHT22;4551;53.164;8.210;2022-11-30T00:21:07;6.20;99.90
9033;DHT22;4551;53.164;8.210;2022-11-30T00:23:40;6.20;99.90
9033;DHT22;4551;53.164;8.210;2022-11-30T00:26:10;6.20;99.90
9033;DHT22;4551;53.164;8.210;2022-11-30T00:28:38;6.20;99.90
9033;DHT22;4551;53.164;8.210;2022-11-30T00:31:07;6.20;99.90
9033;DHT22;4551;53.164;8.210;2022-11-30T00:33:35;6.20;99.90
9033;DHT22;4551;53.164;8.210;2022-11-30T00:36:04;6.20;99.90
9033;DHT22;4551;53.164;8.210;2022-11-30T00:38:35;6.20;99.90
9033;DHT22;4551;53.164;8.210;2022-11-30T00:41:05;6.20;99.90
9033;DHT22;4551;53.164;8.210;2022-11-30T00:43:33;6.20;99.90
9033;DHT22;4551;53.164;8.210;2022-11-30T00:46:01;6.20;99.90
9033;DHT22;4551;53.164;8.210;2022-11-30T00:48:29;6.10;99.90
9033;DHT22;4551;53.164;8.210;2022-11-30T00:50:59;6.10;99.90
9033;DHT22;4551;53.164;8.210;2022-11-30T00:53:36;6.10;99.90
9033;DHT22;4551;53.164;8.210;2022-11-30T00:56:06;6.10;99.90
9033;DHT22;4551;53.164;8.210;2022-11-30T00:58:34;6.10;99.90
9033;DHT22;4551;53.164;8.210;2022-11-30T01:01:05;6.10;99.90
9033;DHT22;4551;53.164;8.210;2022-11-30T01:03:40;6.10;99.90
9033;DHT22;4551;53.164;8.210;2022-11-30T01:06:10;6.10;99.90
9033;DHT22;4551;53.164;8.210;2022-11-30T01:08:38;6.10;99.90
9033;DHT22;4551;53.164;8.210;2022-11-30T01:11:09;6.10;99.90
9033;DHT22;4551;53.164;8.210;2022-11-30T01:13:38;6.00;99.90
9033;DHT22;4551;53.164;8.210;2022-11-30T01:16:07;6.10;99.90
9033;DHT22;4551;53.164;8.210;2022-11-30T01:18:35;6.10;99.90
9033;DHT22;4551;53.164;8.210;2022-11-30T01:21:04;6.10;99.90
9033;DHT22;4551;53.164;8.210;2022-11-30T01:23:32;6.10;99.90
9033;DHT22;4551;53.164;8.210;2022-11-30T01:26:00;6.10;99.90
9033;DHT22;4551;53.164;8.210;2022-11-30T01:28:30;6.10;99.90
9033;DHT22;4551;53.164;8.210;2022-11-30T01:30:58;6.10;99.90
9033;DHT22;4551;53.164;8.210;2022-11-30T01:33:27;6.10;99.90
9033;DHT22;4551;53.164;8.210;2022-11-30T01:35:58;6.10;99.90
9033;DHT22;4551;53.164;8.210;2022-11-30T01:38:30;6.10;99.90
9033;DHT22;4551;53.164;8.210;2022-11-30T01:40:58;6.10;99.90
9033;DHT22;4551;53.164;8.210;2022-11-30T01:43:37;6.10;99.90
9033;DHT22;4551;53.164;8.210;2022-11-30T01:46:05;6.10;99.90
9033;DHT22;4551;53.164;8.210;2022-11-30T01:48:43;6.10;99.90
9033;DHT22;4551;53.164;8.210;2022-11-30T01:51:11;6.10;99.90
9033;DHT22;4551;53.164;8.210;2022-11-30T01:53:39;6.10;99.90
9033;DHT22;4551;53.164;8.210;2022-11-30T01:56:07;6.10;99.90
9033;DHT22;4551;53.164;8.210;2022-11-30T01:58:36;6.10;99.90
9033;DHT22;4551;53.164;8.210;2022-11-30T02:01:04;6.10;99.90
9033;DHT22;4551;53.164;8.210;2022-11-30T02:03:33;6.10;99.90
9033;DHT22;4551;53.164;8.210;2022-11-30T02:06:03;6.10;99.90
9033;DHT22;4551;53.164;8.210;2022-11-30T02:08:31;6.10;99.90
9033;DHT22;4551;53.164;8.210;2022-11-30T02:11:02;6.10;99.90
9033;DHT22;4551;53.164;8.210;2022-11-30T02:13:42;6.00;99.90
9033;DHT22;4551;53.164;8.210;2022-11-30T02:16:15;6.00;99.90
9033;DHT22;4551;53.164;8.210;2022-11-30T02:18:48;6.00;99.90
9033;DHT22;4551;53.164;8.210;2022-11-30T02:21:18;6.00;99.90
9033;DHT22;4551;53.164;8.210;2022-11-30T02:23:57;6.00;99.90
9033;DHT22;4551;53.164;8.210;2022-11-30T02:26:37;6.00;99.90
9033;DHT22;4551;53.164;8.210;2022-11-30T02:29:13;6.00;99.90
9033;DHT22;4551;53.164;8.210;2022-11-30T02:31:45;6.00;99.90
9033;DHT22;4551;53.164;8.210;2022-11-30T02:34:16;6.00;99.90
9033;DHT22;4551;53.164;8.210;2022-11-30T02:37:04;6.00;99.90
9033;DHT22;4551;53.164;8.210;2022-11-30T02:39:33;6.00;99.90
9033;DHT22;4551;53.164;8.210;2022-11-30T02:42:01;6.00;99.90
9033;DHT22;4551;53.164;8.210;2022-11-30T02:44:30;6.00;99.90
9033;DHT22;4551;53.164;8.210;2022-11-30T02:47:01;5.90;99.90
9033;DHT22;4551;53.164;8.210;2022-11-30T02:49:32;5.90;99.90
9033;DHT22;4551;53.164;8.210;2022-11-30T02:52:03;5.90;99.90
9033;DHT22;4551;53.164;8.210;2022-11-30T02:54:32;6.00;99.90
9033;DHT22;4551;53.164;8.210;2022-11-30T02:57:01;5.90;99.90
9033;DHT22;4551;53.164;8.210;2022-11-30T02:59:30;5.90;99.90
9033;DHT22;4551;53.164;8.210;2022-11-30T03:01:58;5.90;99.90
9033;DHT22;4551;53.164;8.210;2022-11-30T03:04:26;5.90;99.90
9033;DHT22;4551;53.164;8.210;2022-11-30T03:06:54;5.90;99.90
9033;DHT22;4551;53.164;8.210;2022-11-30T03:09:22;5.90;99.90
9033;DHT22;4551;53.164;8.210;2022-11-30T03:11:51;5.90;99.90
9033;DHT22;4551;53.164;8.210;2022-11-30T03:14:19;5.90;99.90
9033;DHT22;4551;53.164;8.210;2022-11-30T03:16:48;5.90;99.90
9033;DHT22;4551;53.164;8.210;2022-11-30T03:19:16;5.90;99.90
9033;DHT22;4551;53.164;8.210;2022-11-30T03:21:44;5.90;99.90
9033;DHT22;4551;53.164;8.210;2022-11-30T03:24:12;5.90;99.90
9033;DHT22;4551;53.164;8.210;2022-11-30T03:26:40;5.90;99.90
9033;DHT22;4551;53.164;8.210;2022-11-30T03:29:09;5.90;99.90
9033;DHT22;4551;53.164;8.210;2022-11-30T03:31:37;5.90;99.90
9033;DHT22;4551;53.164;8.210;2022-11-30T03:34:06;5.80;99.90
9033;DHT22;4551;53.164;8.210;2022-11-30T03:36:34;5.90;99.90
9033;DHT22;4551;53.164;8.210;2022-11-30T03:39:02;5.90;99.90
9033;DHT22;4551;53.164;8.210;2022-11-30T03:41:30;5.90;99.90
9033;DHT22;4551;53.164;8.210;2022-11-30T03:43:58;5.90;99.90
9033;DHT22;4551;53.164;8.210;2022-11-30T03:46:26;5.90;99.90
9033;DHT22;4551;53.164;8.210;2022-11-30T03:48:54;5.80;99.90
9033;DHT22;4551;53.164;8.210;2022-11-30T03:51:24;5.90;99.90
9033;DHT22;4551;53.164;8.210;2022-11-30T03:53:52;5.90;99.90
9033;DHT22;4551;53.164;8.210;2022-11-30T03:56:20;5.90;99.90
9033;DHT22;4551;53.164;8.210;2022-11-30T03:58:48;5.90;99.90
9033;DHT22;4551;53.164;8.210;2022-11-30T04:01:17;5.90;99.90
9033;DHT22;4551;53.164;8.210;2022-11-30T04:03:48;5.90;99.90
9033;DHT22;4551;53.164;8.210;2022-11-30T04:06:17;6.00;99.90
9033;DHT22;4551;53.164;8.210;2022-11-30T04:08:47;5.90;99.90
9033;DHT22;4551;53.164;8.210;2022-11-30T04:11:15;5.90;99.90
9033;DHT22;4551;53.164;8.210;2022-11-30T04:13:43;5.80;99.90
9033;DHT22;4551;53.164;8.210;2022-11-30T04:16:11;5.80;99.90
9033;DHT22;4551;53.164;8.210;2022-11-30T04:18:39;5.80;99.90
9033;DHT22;4551;53.164;8.210;2022-11-30T04:21:07;5.80;99.90
9033;DHT22;4551;53.164;8.210;2022-11-30T04:23:36;5.80;99.90
9033;DHT22;4551;53.164;8.210;2022-11-30T04:26:06;5.80;99.90
9033;DHT22;4551;53.164;8.210;2022-11-30T04:28:35;5.80;99.90
9033;DHT22;4551;53.164;8.210;2022-11-30T04:31:03;5.80;99.90
9033;DHT22;4551;53.164;8.210;2022-11-30T04:33:31;5.80;99.90
9033;DHT22;4551;53.164;8.210;2022-11-30T04:36:00;5.80;99.90
9033;DHT22;4551;53.164;8.210;2022-11-30T04:38:28;5.80;99.90
9033;DHT22;4551;53.164;8.210;2022-11-30T04:40:56;5.80;99.90
9033;DHT22;4551;53.164;8.210;2022-11-30T04:43:26;5.80;99.90
9033;DHT22;4551;53.164;8.210;2022-11-30T04:45:54;5.80;99.90
9033;DHT22;4551;53.164;8.210;2022-11-30T04:48:22;5.80;99.90
9033;DHT22;4551;53.164;8.210;2022-11-30T04:50:50;5.80;99.90
9033;DHT22;4551;53.164;8.210;2022-11-30T04:53:20;5.80;99.90
9033;DHT22;4551;53.164;8.210;2022-11-30T04:55:48;5.80;99.90
9033;DHT22;4551;53.164;8.210;2022-11-30T04:58:16;5.80;99.90
9033;DHT22;4551;53.164;8.210;2022-11-30T05:00:45;5.80;99.90
9033;DHT22;4551;53.164;8.210;2022-11-30T05:03:13;5.80;99.90
9033;DHT22;4551;53.164;8.210;2022-11-30T05:05:41;5.80;99.90
9033;DHT22;4551;53.164;8.210;2022-11-30T05:08:09;5.80;99.90
9033;DHT22;4551;53.164;8.210;2022-11-30T05:10:37;5.80;99.90
9033;DHT22;4551;53.164;8.210;2022-11-30T05:13:07;5.80;99.90
9033;DHT22;4551;53.164;8.210;2022-11-30T05:15:35;5.80;99.90
9033;DHT22;4551;53.164;8.210;2022-11-30T05:18:05;5.80;99.90
9033;DHT22;4551;53.164;8.210;2022-11-30T05:20:33;5.80;99.90
9033;DHT22;4551;53.164;8.210;2022-11-30T05:23:01;5.80;99.90
9033;DHT22;4551;53.164;8.210;2022-11-30T05:25:29;5.80;99.90
9033;DHT22;4551;53.164;8.210;2022-11-30T05:27:57;5.80;99.90
9033;DHT22;4551;53.164;8.210;2022-11-30T05:30:25;5.80;99.90
9033;DHT22;4551;53.164;8.210;2022-11-30T05:32:53;5.80;99.90
9033;DHT22;4551;53.164;8.210;2022-11-30T05:35:22;5.80;99.90
9033;DHT22;4551;53.164;8.210;2022-11-30T05:37:50;5.80;99.90
9033;DHT22;4551;53.164;8.210;2022-11-30T05:40:18;5.80;99.90
9033;DHT22;4551;53.164;8.210;2022-11-30T05:42:46;5.80;99.90
9033;DHT22;4551;53.164;8.210;2022-11-30T05:45:14;5.70;99.90
9033;DHT22;4551;53.164;8.210;2022-11-30T05:48:18;5.80;99.90
9033;DHT22;4551;53.164;8.210;2022-11-30T05:50:47;5.70;99.90
9033;DHT22;4551;53.164;8.210;2022-11-30T05:53:15;5.70;99.90
9033;DHT22;4551;53.164;8.210;2022-11-30T05:55:43;5.70;99.90
9033;DHT22;4551;53.164;8.210;2022-11-30T05:58:11;5.70;99.90
9033;DHT22;4551;53.164;8.210;2022-11-30T06:00:39;5.70;99.90
9033;DHT22;4551;53.164;8.210;2022-11-30T06:03:07;5.70;99.90
9033;DHT22;4551;53.164;8.210;2022-11-30T06:05:35;5.70;99.90
9033;DHT22;4551;53.164;8.210;2022-11-30T06:08:05;5.70;99.90
9033;DHT22;4551;53.164;8.210;2022-11-30T06:10:33;5.70;99.90
9033;DHT22;4551;53.164;8.210;2022-11-30T06:13:04;5.70;99.90
9033;DHT22;4551;53.164;8.210;2022-11-30T06:15:33;5.70;99.90
9033;DHT22;4551;53.164;8.210;2022-11-30T06:18:01;5.70;99.90
9033;DHT22;4551;53.164;8.210;2022-11-30T06:20:28;5.70;99.90
9033;DHT22;4551;53.164;8.210;2022-11-30T06:23:08;5.70;99.90
9033;DHT22;4551;53.164;8.210;2022-11-30T06:25:36;5.70;99.90
9033;DHT22;4551;53.164;8.210;2022-11-30T06:28:07;5.70;99.90
9033;DHT22;4551;53.164;8.210;2022-11-30T06:30:35;5.70;99.90
9033;DHT22;4551;53.164;8.210;2022-11-30T06:33:03;5.70;99.90
9033;DHT22;4551;53.164;8.210;2022-11-30T06:35:32;5.70;99.90
9033;DHT22;4551;53.164;8.210;2022-11-30T06:38:00;5.90;99.90
9033;DHT22;4551;53.164;8.210;2022-11-30T06:40:29;5.60;99.90
9033;DHT22;4551;53.164;8.210;2022-11-30T06:42:57;5.70;99.90
9033;DHT22;4551;53.164;8.210;2022-11-30T06:45:26;5.60;99.90
9033;DHT22;4551;53.164;8.210;2022-11-30T06:47:54;7.20;99.90
9033;DHT22;4551;53.164;8.210;2022-11-30T06:50:23;5.60;99.90
9033;DHT22;4551;53.164;8.210;2022-11-30T06:52:54;5.60;99.90
9033;DHT22;4551;53.164;8.210;2022-11-30T06:55:52;5.70;99.90
9033;DHT22;4551;53.164;8.210;2022-11-30T06:58:21;5.60;99.90
9033;DHT22;4551;53.164;8.210;2022-11-30T07:00:49;5.60;99.90
9033;DHT22;4551;53.164;8.210;2022-11-30T07:03:17;5.60;99.90
9033;DHT22;4551;53.164;8.210;2022-11-30T07:05:45;5.60;99.90
9033;DHT22;4551;53.164;8.210;2022-11-30T07:08:14;5.70;99.90
9033;DHT22;4551;53.164;8.210;2022-11-30T07:10:46;5.70;99.90
9033;DHT22;4551;53.164;8.210;2022-11-30T07:13:16;5.70;99.90
9033;DHT22;4551;53.164;8.210;2022-11-30T07:15:44;5.70;99.90
9033;DHT22;4551;53.164;8.210;2022-11-30T07:18:12;5.70;99.90
9033;DHT22;4551;53.164;8.210;2022-11-30T07:20:40;5.70;99.90
9033;DHT22;4551;53.164;8.210;2022-11-30T07:23:11;5.70;99.90
9033;DHT22;4551;53.164;8.210;2022-11-30T07:25:58;5.60;99.90
9033;DHT22;4551;53.164;8.210;2022-11-30T07:28:37;5.60;99.90
9033;DHT22;4551;53.164;8.210;2022-11-30T07:31:12;5.60;99.90
9033;DHT22;4551;53.164;8.210;2022-11-30T07:33:42;5.60;99.90
9033;DHT22;4551;53.164;8.210;2022-11-30T07:36:10;5.60;99.90
9033;DHT22;4551;53.164;8.210;2022-11-30T07:38:38;5.60;99.90
9033;DHT22;4551;53.164;8.210;2022-11-30T07:41:07;5.60;99.90
9033;DHT22;4551;53.164;8.210;2022-11-30T07:43:36;5.60;99.90
9033;DHT22;4551;53.164;8.210;2022-11-30T07:46:04;5.60;99.90
9033;DHT22;4551;53.164;8.210;2022-11-30T07:48:33;5.60;99.90
9033;DHT22;4551;53.164;8.210;2022-11-30T07:51:01;5.60;99.90
9033;DHT22;4551;53.164;8.210;2022-11-30T07:53:30;5.60;99.90
9033;DHT22;4551;53.164;8.210;2022-11-30T07:56:02;5.60;99.90
9033;DHT22;4551;53.164;8.210;2022-11-30T07:58:31;5.60;99.90
9033;DHT22;4551;53.164;8.210;2022-11-30T08:01:01;5.60;99.90
9033;DHT22;4551;53.164;8.210;2022-11-30T08:03:29;5.60;99.90
9033;DHT22;4551;53.164;8.210;2022-11-30T08:06:03;5.60;99.90
9033;DHT22;4551;53.164;8.210;2022-11-30T08:08:33;5.60;99.90
9033;DHT22;4551;53.164;8.210;2022-11-30T08:11:02;5.60;99.90
9033;DHT22;4551;53.164;8.210;2022-11-30T08:13:30;5.60;99.90
9033;DHT22;4551;53.164;8.210;2022-11-30T08:16:01;5.60;99.90
9033;DHT22;4551;53.164;8.210;2022-11-30T08:18:29;5.60;99.90
9033;DHT22;4551;53.164;8.210;2022-11-30T08:20:57;5.60;99.90
9033;DHT22;4551;53.164;8.210;2022-11-30T08:23:26;5.60;99.90
9033;DHT22;4551;53.164;8.210;2022-11-30T08:25:54;5.60;99.90
9033;DHT22;4551;53.164;8.210;2022-11-30T08:28:22;5.60;99.90
9033;DHT22;4551;53.164;8.210;2022-11-30T08:30:50;5.50;99.90
9033;DHT22;4551;53.164;8.210;2022-11-30T08:33:20;5.60;99.90
9033;DHT22;4551;53.164;8.210;2022-11-30T08:35:48;5.60;99.90
9033;DHT22;4551;53.164;8.210;2022-11-30T08:38:16;5.60;99.90
9033;DHT22;4551;53.164;8.210;2022-11-30T08:40:44;5.60;99.90
9033;DHT22;4551;53.164;8.210;2022-11-30T08:43:12;5.60;99.90
9033;DHT22;4551;53.164;8.210;2022-11-30T08:45:40;5.60;99.90
9033;DHT22;4551;53.164;8.210;2022-11-30T08:48:10;5.60;99.90
9033;DHT22;4551;53.164;8.210;2022-11-30T08:50:39;5.60;99.90
9033;DHT22;4551;53.164;8.210;2022-11-30T08:53:08;5.60;99.90
9033;DHT22;4551;53.164;8.210;2022-11-30T08:55:36;5.60;99.90
9033;DHT22;4551;53.164;8.210;2022-11-30T08:58:04;5.60;99.90
9033;DHT22;4551;53.164;8.210;2022-11-30T09:00:35;5.50;99.90
9033;DHT22;4551;53.164;8.210;2022-11-30T09:03:03;5.60;99.90
9033;DHT22;4551;53.164;8.210;2022-11-30T09:05:31;5.60;99.90
9033;DHT22;4551;53.164;8.210;2022-11-30T09:08:01;5.60;99.90
9033;DHT22;4551;53.164;8.210;2022-11-30T09:10:29;5.60;99.90
9033;DHT22;4551;53.164;8.210;2022-11-30T09:13:02;5.50;99.90
9033;DHT22;4551;53.164;8.210;2022-11-30T09:15:32;5.50;99.90
9033;DHT22;4551;53.164;8.210;2022-11-30T09:18:00;5.60;99.90
9033;DHT22;4551;53.164;8.210;2022-11-30T09:20:28;5.60;99.90
9033;DHT22;4551;53.164;8.210;2022-11-30T09:22:57;5.60;99.90
9033;DHT22;4551;53.164;8.210;2022-11-30T09:25:29;5.60;99.90
9033;DHT22;4551;53.164;8.210;2022-11-30T09:27:58;5.50;99.90
9033;DHT22;4551;53.164;8.210;2022-11-30T09:30:38;5.60;99.90
9033;DHT22;4551;53.164;8.210;2022-11-30T09:33:06;5.60;99.90
9033;DHT22;4551;53.164;8.210;2022-11-30T09:35:34;5.60;99.90
9033;DHT22;4551;53.164;8.210;2022-11-30T09:38:02;5.60;99.90
9033;DHT22;4551;53.164;8.210;2022-11-30T09:40:32;5.60;99.90
9033;DHT22;4551;53.164;8.210;2022-11-30T09:43:02;5.60;99.90
9033;DHT22;4551;53.164;8.210;2022-11-30T09:45:33;5.60;99.90
9033;DHT22;4551;53.164;8.210;2022-11-30T09:48:14;5.60;99.90
9033;DHT22;4551;53.164;8.210;2022-11-30T09:50:43;5.60;99.90
9033;DHT22;4551;53.164;8.210;2022-11-30T09:53:14;5.60;99.90
9033;DHT22;4551;53.164;8.210;2022-11-30T09:55:56;5.70;99.90
9033;DHT22;4551;53.164;8.210;2022-11-30T09:58:32;5.60;99.90
9033;DHT22;4551;53.164;8.210;2022-11-30T10:01:01;5.70;99.90
9033;DHT22;4551;53.164;8.210;2022-11-30T10:03:33;5.70;99.90
9033;DHT22;4551;53.164;8.210;2022-11-30T10:06:04;5.70;99.90
9033;DHT22;4551;53.164;8.210;2022-11-30T10:08:43;5.70;99.90
9033;DHT22;4551;53.164;8.210;2022-11-30T10:11:36;5.70;99.90
9033;DHT22;4551;53.164;8.210;2022-11-30T10:14:16;5.60;99.90
9033;DHT22;4551;53.164;8.210;2022-11-30T10:16:51;5.70;99.90
9033;DHT22;4551;53.164;8.210;2022-11-30T10:19:24;5.70;99.90
9033;DHT22;4551;53.164;8.210;2022-11-30T10:21:56;5.70;99.90
9033;DHT22;4551;53.164;8.210;2022-11-30T10:24:28;5.70;99.90
9033;DHT22;4551;53.164;8.210;2022-11-30T10:27:01;5.70;99.90
9033;DHT22;4551;53.164;8.210;2022-11-30T10:29:32;5.70;99.90
9033;DHT22;4551;53.164;8.210;2022-11-30T10:32:08;5.80;99.90
9033;DHT22;4551;53.164;8.210;2022-11-30T10:34:37;5.70;99.90
9033;DHT22;4551;53.164;8.210;2022-11-30T10:37:08;5.80;99.90
9033;DHT22;4551;53.164;8.210;2022-11-30T10:39:40;5.80;99.90
9033;DHT22;4551;53.164;8.210;2022-11-30T10:42:12;5.80;99.90
9033;DHT22;4551;53.164;8.210;2022-11-30T10:44:43;5.80;99.90
9033;DHT22;4551;53.164;8.210;2022-11-30T10:47:13;5.80;99.90
9033;DHT22;4551;53.164;8.210;2022-11-30T10:49:47;5.80;99.90
9033;DHT22;4551;53.164;8.210;2022-11-30T10:52:16;5.80;99.90
9033;DHT22;4551;53.164;8.210;2022-11-30T10:54:45;5.80;99.90
9033;DHT22;4551;53.164;8.210;2022-11-30T10:57:15;5.80;99.90
9033;DHT22;4551;53.164;8.210;2022-11-30T10:59:44;5.80;99.90
9033;DHT22;4551;53.164;8.210;2022-11-30T11:05:11;5.90;99.90
9033;DHT22;4551;53.164;8.210;2022-11-30T11:07:43;5.90;99.90
9033;DHT22;4551;53.164;8.210;2022-11-30T11:10:13;5.90;99.90
9033;DHT22;4551;53.164;8.210;2022-11-30T11:12:46;5.90;99.90
9033;DHT22;4551;53.164;8.210;2022-11-30T11:15:16;5.90;99.90
9033;DHT22;4551;53.164;8.210;2022-11-30T11:17:45;5.90;99.90
9033;DHT22;4551;53.164;8.210;2022-11-30T11:20:27;5.90;99.90
9033;DHT22;4551;53.164;8.210;2022-11-30T11:23:00;5.90;99.90
9033;DHT22;4551;53.164;8.210;2022-11-30T11:25:32;6.00;99.90
9033;DHT22;4551;53.164;8.210;2022-11-30T11:28:03;5.90;99.90
9033;DHT22;4551;53.164;8.210;2022-11-30T11:30:35;6.00;99.90
9033;DHT22;4551;53.164;8.210;2022-11-30T11:33:07;6.00;99.90
9033;DHT22;4551;53.164;8.210;2022-11-30T11:35:50;6.00;99.90
9033;DHT22;4551;53.164;8.210;2022-11-30T11:38:22;6.00;99.90
9033;DHT22;4551;53.164;8.210;2022-11-30T11:40:51;6.00;99.90
9033;DHT22;4551;53.164;8.210;2022-11-30T11:43:22;6.00;99.90
9033;DHT22;4551;53.164;8.210;2022-11-30T11:45:50;6.00;99.90
9033;DHT22;4551;53.164;8.210;2022-11-30T11:48:25;6.00;99.90
9033;DHT22;4551;53.164;8.210;2022-11-30T11:50:55;6.00;99.90
9033;DHT22;4551;53.164;8.210;2022-11-30T11:53:35;6.00;99.90
9033;DHT22;4551;53.164;8.210;2022-11-30T11:56:12;6.00;99.90
9033;DHT22;4551;53.164;8.210;2022-11-30T11:58:44;6.10;99.90
9033;DHT22;4551;53.164;8.210;2022-11-30T12:01:16;6.10;99.90
9033;DHT22;4551;53.164;8.210;2022-11-30T12:04:29;6.10;99.90
9033;DHT22;4551;53.164;8.210;2022-11-30T12:07:00;6.00;99.90
9033;DHT22;4551;53.164;8.210;2022-11-30T12:09:30;6.00;99.90
9033;DHT22;4551;53.164;8.210;2022-11-30T12:12:00;6.00;99.90
9033;DHT22;4551;53.164;8.210;2022-11-30T12:14:32;6.00;99.90
9033;DHT22;4551;53.164;8.210;2022-11-30T12:17:02;6.00;99.90
9033;DHT22;4551;53.164;8.210;2022-11-30T12:19:37;6.00;99.90
9033;DHT22;4551;53.164;8.210;2022-11-30T12:22:12;6.00;99.90
9033;DHT22;4551;53.164;8.210;2022-11-30T12:24:47;6.00;99.90
9033;DHT22;4551;53.164;8.210;2022-11-30T12:27:21;6.00;99.90
9033;DHT22;4551;53.164;8.210;2022-11-30T12:29:56;6.00;99.90
9033;DHT22;4551;53.164;8.210;2022-11-30T12:32:29;6.00;99.90
9033;DHT22;4551;53.164;8.210;2022-11-30T12:35:02;6.00;99.90
9033;DHT22;4551;53.164;8.210;2022-11-30T12:37:35;6.00;99.90
9033;DHT22;4551;53.164;8.210;2022-11-30T12:40:17;6.00;99.90
9033;DHT22;4551;53.164;8.210;2022-11-30T12:42:51;6.00;99.90
9033;DHT22;4551;53.164;8.210;2022-11-30T12:45:22;6.00;99.90
9033;DHT22;4551;53.164;8.210;2022-11-30T12:47:52;6.10;99.90
9033;DHT22;4551;53.164;8.210;2022-11-30T12:50:25;6.00;99.90
9033;DHT22;4551;53.164;8.210;2022-11-30T12:52:59;6.00;99.90
9033;DHT22;4551;53.164;8.210;2022-11-30T12:55:32;6.10;99.90
9033;DHT22;4551;53.164;8.210;2022-11-30T12:58:05;6.00;99.90
9033;DHT22;4551;53.164;8.210;2022-11-30T13:00:38;6.10;99.90
9033;DHT22;4551;53.164;8.210;2022-11-30T13:06:06;6.00;99.90
9033;DHT22;4551;53.164;8.210;2022-11-30T13:08:37;6.10;99.90
9033;DHT22;4551;53.164;8.210;2022-11-30T13:11:10;6.10;99.90
9033;DHT22;4551;53.164;8.210;2022-11-30T13:13:41;6.00;99.90
9033;DHT22;4551;53.164;8.210;2022-11-30T13:16:13;6.10;99.90
9033;DHT22;4551;53.164;8.210;2022-11-30T13:18:45;6.10;99.90
9033;DHT22;4551;53.164;8.210;2022-11-30T13:21:15;6.10;99.90
9033;DHT22;4551;53.164;8.210;2022-11-30T13:23:47;6.10;99.90
9033;DHT22;4551;53.164;8.210;2022-11-30T13:26:21;6.10;99.90
9033;DHT22;4551;53.164;8.210;2022-11-30T13:28:55;6.10;99.90
9033;DHT22;4551;53.164;8.210;2022-11-30T13:31:28;6.10;99.90
9033;DHT22;4551;53.164;8.210;2022-11-30T13:33:59;6.10;99.90
9033;DHT22;4551;53.164;8.210;2022-11-30T13:36:35;6.10;99.90
9033;DHT22;4551;53.164;8.210;2022-11-30T13:39:18;6.10;99.90
9033;DHT22;4551;53.164;8.210;2022-11-30T13:41:47;6.10;99.90
9033;DHT22;4551;53.164;8.210;2022-11-30T13:44:20;6.10;99.90
9033;DHT22;4551;53.164;8.210;2022-11-30T13:46:51;6.10;99.90
9033;DHT22;4551;53.164;8.210;2022-11-30T13:49:20;6.10;99.90
9033;DHT22;4551;53.164;8.210;2022-11-30T13:51:48;6.00;99.90
9033;DHT22;4551;53.164;8.210;2022-11-30T13:54:40;6.10;99.90
9033;DHT22;4551;53.164;8.210;2022-11-30T13:59:52;6.10;99.90
9033;DHT22;4551;53.164;8.210;2022-11-30T14:05:19;6.10;99.90
9033;DHT22;4551;53.164;8.210;2022-11-30T14:10:32;6.10;99.90
9033;DHT22;4551;53.164;8.210;2022-11-30T14:13:00;6.10;99.90
9033;DHT22;4551;53.164;8.210;2022-11-30T14:18:20;6.10;99.90
9033;DHT22;4551;53.164;8.210;2022-11-30T14:20:52;6.10;99.90
9033;DHT22;4551;53.164;8.210;2022-11-30T14:23:26;6.10;99.90
9033;DHT22;4551;53.164;8.210;2022-11-30T14:26:03;6.10;99.90
9033;DHT22;4551;53.164;8.210;2022-11-30T14:28:41;6.10;99.90
9033;DHT22;4551;53.164;8.210;2022-11-30T14:31:13;6.10;99.90
9033;DHT22;4551;53.164;8.210;2022-11-30T14:33:43;6.00;99.90
9033;DHT22;4551;53.164;8.210;2022-11-30T14:36:16;6.00;99.90
9033;DHT22;4551;53.164;8.210;2022-11-30T14:38:45;6.00;99.90
9033;DHT22;4551;53.164;8.210;2022-11-30T14:41:19;6.10;99.90
9033;DHT22;4551;53.164;8.210;2022-11-30T14:44:04;6.00;99.90
9033;DHT22;4551;53.164;8.210;2022-11-30T14:46:38;6.10;99.90
9033;DHT22;4551;53.164;8.210;2022-11-30T14:49:14;6.10;99.90
9033;DHT22;4551;53.164;8.210;2022-11-30T14:51:44;6.00;99.90
9033;DHT22;4551;53.164;8.210;2022-11-30T14:54:29;6.10;99.90
9033;DHT22;4551;53.164;8.210;2022-11-30T14:57:01;6.00;99.90
9033;DHT22;4551;53.164;8.210;2022-11-30T14:59:36;6.10;99.90
9033;DHT22;4551;53.164;8.210;2022-11-30T15:02:10;6.00;99.90
9033;DHT22;4551;53.164;8.210;2022-11-30T15:04:41;6.00;99.90
9033;DHT22;4551;53.164;8.210;2022-11-30T15:07:12;6.10;99.90
9033;DHT22;4551;53.164;8.210;2022-11-30T15:09:42;6.00;99.90
9033;DHT22;4551;53.164;8.210;2022-11-30T15:12:14;6.00;99.90
9033;DHT22;4551;53.164;8.210;2022-11-30T15:17:25;6.00;99.90
9033;DHT22;4551;53.164;8.210;2022-11-30T15:19:53;6.00;99.90
9033;DHT22;4551;53.164;8.210;2022-11-30T15:22:23;6.00;99.90
9033;DHT22;4551;53.164;8.210;2022-11-30T15:24:51;6.00;99.90
9033;DHT22;4551;53.164;8.210;2022-11-30T15:27:20;6.00;99.90
9033;DHT22;4551;53.164;8.210;2022-11-30T15:29:52;6.00;99.90
9033;DHT22;4551;53.164;8.210;2022-11-30T15:32:21;6.00;99.90
9033;DHT22;4551;53.164;8.210;2022-11-30T15:34:50;6.00;99.90
9033;DHT22;4551;53.164;8.210;2022-11-30T15:37:28;6.00;99.90
9033;DHT22;4551;53.164;8.210;2022-11-30T15:39:57;6.00;99.90
9033;DHT22;4551;53.164;8.210;2022-11-30T15:42:27;5.90;99.90
9033;DHT22;4551;53.164;8.210;2022-11-30T15:45:09;6.00;99.90
9033;DHT22;4551;53.164;8.210;2022-11-30T15:47:44;5.90;99.90
9033;DHT22;4551;53.164;8.210;2022-11-30T15:50:27;5.90;99.90
9033;DHT22;4551;53.164;8.210;2022-11-30T15:52:59;5.90;99.90
9033;DHT22;4551;53.164;8.210;2022-11-30T15:55:40;5.80;99.90
9033;DHT22;4551;53.164;8.210;2022-11-30T15:58:22;5.80;99.90
9033;DHT22;4551;53.164;8.210;2022-11-30T16:01:01;5.80;99.90
9033;DHT22;4551;53.164;8.210;2022-11-30T16:03:31;5.80;99.90
9033;DHT22;4551;53.164;8.210;2022-11-30T16:06:00;5.80;99.90
9033;DHT22;4551;53.164;8.210;2022-11-30T16:08:31;5.80;99.90
9033;DHT22;4551;53.164;8.210;2022-11-30T16:11:00;5.80;99.90
9033;DHT22;4551;53.164;8.210;2022-11-30T16:13:33;5.80;99.90
9033;DHT22;4551;53.164;8.210;2022-11-30T16:16:09;5.80;99.90
9033;DHT22;4551;53.164;8.210;2022-11-30T16:18:38;5.80;99.90
9033;DHT22;4551;53.164;8.210;2022-11-30T16:21:09;5.80;99.90
9033;DHT22;4551;53.164;8.210;2022-11-30T16:23:39;5.80;99.90
9033;DHT22;4551;53.164;8.210;2022-11-30T16:26:08;5.80;99.90
9033;DHT22;4551;53.164;8.210;2022-11-30T16:28:54;5.80;99.90
9033;DHT22;4551;53.164;8.210;2022-11-30T16:31:23;5.80;99.90
9033;DHT22;4551;53.164;8.210;2022-11-30T16:33:51;5.80;99.90
9033;DHT22;4551;53.164;8.210;2022-11-30T16:36:19;5.80;99.90
9033;DHT22;4551;53.164;8.210;2022-11-30T16:38:50;5.80;99.90
9033;DHT22;4551;53.164;8.210;2022-11-30T16:41:18;5.80;99.90
9033;DHT22;4551;53.164;8.210;2022-11-30T16:43:47;5.80;99.90
9033;DHT22;4551;53.164;8.210;2022-11-30T16:46:16;5.80;99.90
9033;DHT22;4551;53.164;8.210;2022-11-30T16:48:44;5.80;99.90
9033;DHT22;4551;53.164;8.210;2022-11-30T16:51:18;5.80;99.90
9033;DHT22;4551;53.164;8.210;2022-11-30T16:53:46;5.80;99.90
9033;DHT22;4551;53.164;8.210;2022-11-30T16:56:18;5.80;99.90
9033;DHT22;4551;53.164;8.210;2022-11-30T16:58:46;5.80;99.90
9033;DHT22;4551;53.164;8.210;2022-11-30T17:01:15;6.20;99.90